sensor_id;sensor_type;location;lat;lon;timestamp;pressure;altitude;pressure_sealevel;temperature
31921;BMP280;66485;52.128;4.436;2023-03-01T00:01:30;103345.59;;;17.24
31921;BMP280;66485;52.128;4.436;2023-03-01T00:03:56;103357.22;;;17.24
31921;BMP280;66485;52.128;4.436;2023-03-01T00:06:22;103357.22;;;17.24
31921;BMP280;66485;52.128;4.436;2023-03-01T00:08:48;103348.16;;;17.20
31921;BMP280;66485;52.128;4.436;2023-03-01T00:11:17;103350.44;;;17.18
31921;BMP280;66485;52.128;4.436;2023-03-01T00:13:47;103344.25;;;17.18
31921;BMP280;66485;52.128;4.436;2023-03-01T00:16:16;103349.19;;;17.16
31921;BMP280;66485;52.128;4.436;2023-03-01T00:18:41;103341.53;;;17.18
31921;BMP280;66485;52.128;4.436;2023-03-01T00:21:07;103341.53;;;17.18
31921;BMP280;66485;52.128;4.436;2023-03-01T00:23:36;103339.06;;;17.13
31921;BMP280;66485;52.128;4.436;2023-03-01T00:26:05;103335.81;;;17.07
31921;BMP280;66485;52.128;4.436;2023-03-01T00:28:31;103331.97;;;17.08
31921;BMP280;66485;52.128;4.436;2023-03-01T00:31:03;103327.47;;;17.00
31921;BMP280;66485;52.128;4.436;2023-03-01T00:33:28;103331.66;;;16.97
31921;BMP280;66485;52.128;4.436;2023-03-01T00:35:53;103328.06;;;16.93
31921;BMP280;66485;52.128;4.436;2023-03-01T00:38:19;103328.06;;;16.93
31921;BMP280;66485;52.128;4.436;2023-03-01T00:40:44;103327.81;;;16.98
31921;BMP280;66485;52.128;4.436;2023-03-01T00:43:09;103325.38;;;16.93
31921;BMP280;66485;52.128;4.436;2023-03-01T00:45:35;103325.38;;;16.93
31921;BMP280;66485;52.128;4.436;2023-03-01T00:48:00;103324.75;;;17.12
31921;BMP280;66485;52.128;4.436;2023-03-01T00:50:25;103328.53;;;17.23
31921;BMP280;66485;52.128;4.436;2023-03-01T00:52:55;103328.53;;;17.23
31921;BMP280;66485;52.128;4.436;2023-03-01T00:55:20;103319.16;;;17.21
31921;BMP280;66485;52.128;4.436;2023-03-01T00:57:46;103317.09;;;17.30
31921;BMP280;66485;52.128;4.436;2023-03-01T01:00:11;103324.06;;;17.31
31921;BMP280;66485;52.128;4.436;2023-03-01T01:02:37;103320.56;;;17.30
31921;BMP280;66485;52.128;4.436;2023-03-01T01:05:03;103324.22;;;17.34
31921;BMP280;66485;52.128;4.436;2023-03-01T01:07:29;103311.69;;;17.30
31921;BMP280;66485;52.128;4.436;2023-03-01T01:09:54;103319.44;;;17.31
31921;BMP280;66485;52.128;4.436;2023-03-01T01:12:19;103319.44;;;17.31
31921;BMP280;66485;52.128;4.436;2023-03-01T01:14:45;103319.44;;;17.31
31921;BMP280;66485;52.128;4.436;2023-03-01T01:17:11;103307.03;;;17.30
31921;BMP280;66485;52.128;4.436;2023-03-01T01:19:36;103316.31;;;17.29
31921;BMP280;66485;52.128;4.436;2023-03-01T01:22:01;103315.53;;;17.29
31921;BMP280;66485;52.128;4.436;2023-03-01T01:24:27;103313.94;;;17.28
31921;BMP280;66485;52.128;4.436;2023-03-01T01:26:52;103315.00;;;17.23
31921;BMP280;66485;52.128;4.436;2023-03-01T01:29:17;103303.03;;;17.24
31921;BMP280;66485;52.128;4.436;2023-03-01T01:31:43;103301.09;;;17.25
31921;BMP280;66485;52.128;4.436;2023-03-01T01:34:17;103294.13;;;17.24
31921;BMP280;66485;52.128;4.436;2023-03-01T01:36:44;103296.81;;;17.24
31921;BMP280;66485;52.128;4.436;2023-03-01T01:39:12;103294.34;;;17.19
31921;BMP280;66485;52.128;4.436;2023-03-01T01:41:40;103294.34;;;17.19
31921;BMP280;66485;52.128;4.436;2023-03-01T01:44:17;103275.72;;;17.17
31921;BMP280;66485;52.128;4.436;2023-03-01T01:46:46;103275.72;;;17.17
31921;BMP280;66485;52.128;4.436;2023-03-01T01:49:20;103268.31;;;17.14
31921;BMP280;66485;52.128;4.436;2023-03-01T01:51:48;103262.44;;;17.12
31921;BMP280;66485;52.128;4.436;2023-03-01T01:54:44;103261.22;;;17.10
31921;BMP280;66485;52.128;4.436;2023-03-01T01:57:17;103262.44;;;17.12
31921;BMP280;66485;52.128;4.436;2023-03-01T01:59:46;103262.44;;;17.12
31921;BMP280;66485;52.128;4.436;2023-03-01T02:02:14;103253.19;;;17.13
31921;BMP280;66485;52.128;4.436;2023-03-01T02:04:40;103254.78;;;17.14
31921;BMP280;66485;52.128;4.436;2023-03-01T02:07:17;103255.91;;;17.13
31921;BMP280;66485;52.128;4.436;2023-03-01T02:09:48;103259.09;;;17.03
31921;BMP280;66485;52.128;4.436;2023-03-01T02:12:16;103258.19;;;16.99
31921;BMP280;66485;52.128;4.436;2023-03-01T02:14:42;103259.97;;;17.07
31921;BMP280;66485;52.128;4.436;2023-03-01T02:17:09;103256.69;;;17.14
31921;BMP280;66485;52.128;4.436;2023-03-01T02:19:44;103254.84;;;17.18
31921;BMP280;66485;52.128;4.436;2023-03-01T02:22:35;103236.44;;;17.23
31921;BMP280;66485;52.128;4.436;2023-03-01T02:30:25;103235.72;;;17.42
31921;BMP280;66485;52.128;4.436;2023-03-01T02:32:52;103240.81;;;17.44
31921;BMP280;66485;52.128;4.436;2023-03-01T02:35:19;103243.53;;;17.44
31921;BMP280;66485;52.128;4.436;2023-03-01T02:37:44;103236.53;;;17.42
31921;BMP280;66485;52.128;4.436;2023-03-01T02:40:17;103236.53;;;17.42
31921;BMP280;66485;52.128;4.436;2023-03-01T02:42:50;103232.22;;;17.41
31921;BMP280;66485;52.128;4.436;2023-03-01T02:45:16;103244.34;;;17.44
31921;BMP280;66485;52.128;4.436;2023-03-01T02:47:41;103238.09;;;17.44
31921;BMP280;66485;52.128;4.436;2023-03-01T02:50:18;103238.09;;;17.44
31921;BMP280;66485;52.128;4.436;2023-03-01T02:55:21;103225.59;;;17.39
31921;BMP280;66485;52.128;4.436;2023-03-01T02:57:47;103220.19;;;17.39
31921;BMP280;66485;52.128;4.436;2023-03-01T03:00:21;103219.75;;;17.37
31921;BMP280;66485;52.128;4.436;2023-03-01T03:02:50;103213.91;;;17.35
31921;BMP280;66485;52.128;4.436;2023-03-01T03:05:19;103213.44;;;17.33
31921;BMP280;66485;52.128;4.436;2023-03-01T03:07:46;103213.44;;;17.33
31921;BMP280;66485;52.128;4.436;2023-03-01T03:10:15;103206.78;;;17.30
31921;BMP280;66485;52.128;4.436;2023-03-01T03:12:41;103216.06;;;17.29
31921;BMP280;66485;52.128;4.436;2023-03-01T03:15:09;103216.06;;;17.29
31921;BMP280;66485;52.128;4.436;2023-03-01T03:17:39;103202.41;;;17.26
31921;BMP280;66485;52.128;4.436;2023-03-01T03:20:06;103203.13;;;17.23
31921;BMP280;66485;52.128;4.436;2023-03-01T03:22:36;103204.25;;;17.22
31921;BMP280;66485;52.128;4.436;2023-03-01T03:25:01;103203.03;;;17.19
31921;BMP280;66485;52.128;4.436;2023-03-01T03:27:27;103198.41;;;17.20
31921;BMP280;66485;52.128;4.436;2023-03-01T03:29:52;103194.47;;;17.17
31921;BMP280;66485;52.128;4.436;2023-03-01T03:32:18;103193.34;;;17.18
31921;BMP280;66485;52.128;4.436;2023-03-01T03:34:43;103192.09;;;17.16
31921;BMP280;66485;52.128;4.436;2023-03-01T03:37:08;103194.81;;;17.16
31921;BMP280;66485;52.128;4.436;2023-03-01T03:39:54;103190.56;;;17.15
31921;BMP280;66485;52.128;4.436;2023-03-01T03:42:20;103195.03;;;17.11
31921;BMP280;66485;52.128;4.436;2023-03-01T03:44:47;103202.06;;;17.12
31921;BMP280;66485;52.128;4.436;2023-03-01T03:47:12;103194.03;;;17.15
31921;BMP280;66485;52.128;4.436;2023-03-01T03:49:38;103196.81;;;17.19
31921;BMP280;66485;52.128;4.436;2023-03-01T03:52:03;103183.22;;;17.15
31921;BMP280;66485;52.128;4.436;2023-03-01T03:54:28;103186.91;;;17.11
31921;BMP280;66485;52.128;4.436;2023-03-01T03:56:54;103176.34;;;17.06
31921;BMP280;66485;52.128;4.436;2023-03-01T03:59:19;103190.59;;;17.02
31921;BMP280;66485;52.128;4.436;2023-03-01T04:01:44;103185.44;;;16.97
31921;BMP280;66485;52.128;4.436;2023-03-01T04:04:10;103182.53;;;16.90
31921;BMP280;66485;52.128;4.436;2023-03-01T04:06:35;103180.13;;;17.01
31921;BMP280;66485;52.128;4.436;2023-03-01T04:09:00;103181.78;;;17.06
31921;BMP280;66485;52.128;4.436;2023-03-01T04:11:27;103181.78;;;17.06
31921;BMP280;66485;52.128;4.436;2023-03-01T04:13:55;103188.09;;;17.10
31921;BMP280;66485;52.128;4.436;2023-03-01T04:16:22;103187.75;;;17.27
31921;BMP280;66485;52.128;4.436;2023-03-01T04:18:47;103187.47;;;17.32
31921;BMP280;66485;52.128;4.436;2023-03-01T04:21:13;103180.22;;;17.36
31921;BMP280;66485;52.128;4.436;2023-03-01T04:23:39;103179.91;;;17.37
31921;BMP280;66485;52.128;4.436;2023-03-01T04:26:06;103171.31;;;17.35
31921;BMP280;66485;52.128;4.436;2023-03-01T04:28:35;103174.13;;;17.39
31921;BMP280;66485;52.128;4.436;2023-03-01T04:31:17;103177.25;;;17.41
31921;BMP280;66485;52.128;4.436;2023-03-01T04:33:46;103181.13;;;17.40
31921;BMP280;66485;52.128;4.436;2023-03-01T04:36:13;103174.91;;;17.39
31921;BMP280;66485;52.128;4.436;2023-03-01T04:38:40;103174.91;;;17.39
31921;BMP280;66485;52.128;4.436;2023-03-01T04:41:07;103174.13;;;17.39
31921;BMP280;66485;52.128;4.436;2023-03-01T04:43:33;103168.25;;;17.37
31921;BMP280;66485;52.128;4.436;2023-03-01T04:46:15;103171.75;;;17.37
31921;BMP280;66485;52.128;4.436;2023-03-01T04:48:42;103167.72;;;17.31
31921;BMP280;66485;52.128;4.436;2023-03-01T04:51:08;103152.25;;;17.32
31921;BMP280;66485;52.128;4.436;2023-03-01T04:53:34;103152.25;;;17.32
31921;BMP280;66485;52.128;4.436;2023-03-01T04:56:02;103152.25;;;17.32
31921;BMP280;66485;52.128;4.436;2023-03-01T04:58:28;103157.94;;;17.27
31921;BMP280;66485;52.128;4.436;2023-03-01T05:00:54;103157.94;;;17.27
31921;BMP280;66485;52.128;4.436;2023-03-01T05:03:20;103136.66;;;17.25
31921;BMP280;66485;52.128;4.436;2023-03-01T05:05:48;103135.84;;;17.25
31921;BMP280;66485;52.128;4.436;2023-03-01T05:08:14;103145.53;;;17.26
31921;BMP280;66485;52.128;4.436;2023-03-01T05:10:48;103141.16;;;17.21
31921;BMP280;66485;52.128;4.436;2023-03-01T05:13:14;103141.53;;;17.20
31921;BMP280;66485;52.128;4.436;2023-03-01T05:15:55;103145.72;;;17.17
31921;BMP280;66485;52.128;4.436;2023-03-01T05:18:21;103146.06;;;17.16
31921;BMP280;66485;52.128;4.436;2023-03-01T05:20:51;103142.59;;;17.15
31921;BMP280;66485;52.128;4.436;2023-03-01T05:23:17;103146.44;;;17.14
31921;BMP280;66485;52.128;4.436;2023-03-01T05:25:43;103144.06;;;17.13
31921;BMP280;66485;52.128;4.436;2023-03-01T05:28:12;103144.06;;;17.13
31921;BMP280;66485;52.128;4.436;2023-03-01T05:30:38;103129.63;;;17.09
31921;BMP280;66485;52.128;4.436;2023-03-01T05:33:04;103128.06;;;17.08
31921;BMP280;66485;52.128;4.436;2023-03-01T05:35:29;103119.59;;;17.09
31921;BMP280;66485;52.128;4.436;2023-03-01T05:37:57;103119.59;;;17.09
31921;BMP280;66485;52.128;4.436;2023-03-01T05:40:23;103113.72;;;17.07
31921;BMP280;66485;52.128;4.436;2023-03-01T05:42:53;103114.25;;;17.13
31921;BMP280;66485;52.128;4.436;2023-03-01T05:45:19;103115.84;;;17.14
31921;BMP280;66485;52.128;4.436;2023-03-01T05:47:46;103114.25;;;17.13
31921;BMP280;66485;52.128;4.436;2023-03-01T05:50:15;103114.25;;;17.13
31921;BMP280;66485;52.128;4.436;2023-03-01T05:52:47;103109.44;;;16.90
31921;BMP280;66485;52.128;4.436;2023-03-01T05:55:14;103109.44;;;16.90
31921;BMP280;66485;52.128;4.436;2023-03-01T05:57:39;103112.75;;;16.99
31921;BMP280;66485;52.128;4.436;2023-03-01T06:00:05;103112.75;;;16.99
31921;BMP280;66485;52.128;4.436;2023-03-01T06:02:31;103097.53;;;17.11
31921;BMP280;66485;52.128;4.436;2023-03-01T06:04:56;103092.75;;;17.20
31921;BMP280;66485;52.128;4.436;2023-03-01T06:07:22;103094.44;;;17.24
31921;BMP280;66485;52.128;4.436;2023-03-01T06:09:47;103094.44;;;17.24
31921;BMP280;66485;52.128;4.436;2023-03-01T06:12:12;103099.19;;;17.31
31921;BMP280;66485;52.128;4.436;2023-03-01T06:14:38;103096.16;;;17.32
31921;BMP280;66485;52.128;4.436;2023-03-01T06:17:03;103096.94;;;17.33
31921;BMP280;66485;52.128;4.436;2023-03-01T06:19:28;103098.84;;;17.32
31921;BMP280;66485;52.128;4.436;2023-03-01T06:21:53;103108.25;;;17.35
31921;BMP280;66485;52.128;4.436;2023-03-01T06:24:19;103098.84;;;17.32
31921;BMP280;66485;52.128;4.436;2023-03-01T06:26:44;103098.06;;;17.32
31921;BMP280;66485;52.128;4.436;2023-03-01T06:29:09;103105.88;;;17.33
31921;BMP280;66485;52.128;4.436;2023-03-01T06:31:35;103101.91;;;17.31
31921;BMP280;66485;52.128;4.436;2023-03-01T06:34:00;103101.91;;;17.31
31921;BMP280;66485;52.128;4.436;2023-03-01T06:36:25;103105.00;;;17.29
31921;BMP280;66485;52.128;4.436;2023-03-01T06:38:51;103101.50;;;17.29
31921;BMP280;66485;52.128;4.436;2023-03-01T06:41:16;103094.50;;;17.28
31921;BMP280;66485;52.128;4.436;2023-03-01T06:43:41;103097.22;;;17.28
31921;BMP280;66485;52.128;4.436;2023-03-01T06:46:07;103098.72;;;17.25
31921;BMP280;66485;52.128;4.436;2023-03-01T06:48:33;103105.34;;;17.28
31921;BMP280;66485;52.128;4.436;2023-03-01T06:50:59;103101.78;;;17.24
31921;BMP280;66485;52.128;4.436;2023-03-01T06:53:28;103099.06;;;17.24
31921;BMP280;66485;52.128;4.436;2023-03-01T06:55:58;103099.06;;;17.24
31921;BMP280;66485;52.128;4.436;2023-03-01T06:58:25;103106.41;;;17.23
31921;BMP280;66485;52.128;4.436;2023-03-01T07:00:50;103106.41;;;17.23
31921;BMP280;66485;52.128;4.436;2023-03-01T07:03:15;103108.63;;;17.21
31921;BMP280;66485;52.128;4.436;2023-03-01T07:05:41;103111.81;;;17.23
31921;BMP280;66485;52.128;4.436;2023-03-01T07:08:06;103107.00;;;17.17
31921;BMP280;66485;52.128;4.436;2023-03-01T07:10:31;103109.28;;;17.15
31921;BMP280;66485;52.128;4.436;2023-03-01T07:12:58;103105.53;;;17.19
31921;BMP280;66485;52.128;4.436;2023-03-01T07:15:24;103098.47;;;17.15
31921;BMP280;66485;52.128;4.436;2023-03-01T07:17:50;103101.41;;;17.10
31921;BMP280;66485;52.128;4.436;2023-03-01T07:20:17;103101.41;;;17.10
31921;BMP280;66485;52.128;4.436;2023-03-01T07:22:43;103110.09;;;17.15
31921;BMP280;66485;52.128;4.436;2023-03-01T07:25:09;103106.66;;;17.18
31921;BMP280;66485;52.128;4.436;2023-03-01T07:27:35;103106.66;;;17.18
31921;BMP280;66485;52.128;4.436;2023-03-01T07:30:00;103108.78;;;17.25
31921;BMP280;66485;52.128;4.436;2023-03-01T07:32:26;103110.31;;;17.26
31921;BMP280;66485;52.128;4.436;2023-03-01T07:34:51;103110.69;;;17.24
31921;BMP280;66485;52.128;4.436;2023-03-01T07:37:16;103112.69;;;17.27
31921;BMP280;66485;52.128;4.436;2023-03-01T07:39:42;103113.41;;;17.24
31921;BMP280;66485;52.128;4.436;2023-03-01T07:42:08;103116.53;;;17.26
31921;BMP280;66485;52.128;4.436;2023-03-01T07:44:33;103116.13;;;17.24
31921;BMP280;66485;52.128;4.436;2023-03-01T07:46:59;103116.13;;;17.24
31921;BMP280;66485;52.128;4.436;2023-03-01T07:49:25;103123.19;;;17.29
31921;BMP280;66485;52.128;4.436;2023-03-01T07:51:51;103122.38;;;17.28
31921;BMP280;66485;52.128;4.436;2023-03-01T07:54:17;103118.16;;;17.31
31921;BMP280;66485;52.128;4.436;2023-03-01T07:56:43;103118.16;;;17.31
31921;BMP280;66485;52.128;4.436;2023-03-01T07:59:08;103114.66;;;17.30
31921;BMP280;66485;52.128;4.436;2023-03-01T08:01:34;103116.97;;;17.28
31921;BMP280;66485;52.128;4.436;2023-03-01T08:03:59;103114.19;;;17.25
31921;BMP280;66485;52.128;4.436;2023-03-01T08:06:24;103114.34;;;17.16
31921;BMP280;66485;52.128;4.436;2023-03-01T08:08:50;103113.19;;;17.17
31921;BMP280;66485;52.128;4.436;2023-03-01T08:11:15;103110.25;;;17.22
31921;BMP280;66485;52.128;4.436;2023-03-01T08:13:41;103110.25;;;17.22
31921;BMP280;66485;52.128;4.436;2023-03-01T08:16:14;103107.34;;;17.31
31921;BMP280;66485;52.128;4.436;2023-03-01T08:18:40;103108.25;;;17.35
31921;BMP280;66485;52.128;4.436;2023-03-01T08:21:08;103108.25;;;17.35
31921;BMP280;66485;52.128;4.436;2023-03-01T08:23:33;103104.47;;;17.39
31921;BMP280;66485;52.128;4.436;2023-03-01T08:28:38;103100.00;;;17.31
31921;BMP280;66485;52.128;4.436;2023-03-01T08:31:17;103095.03;;;17.33
31921;BMP280;66485;52.128;4.436;2023-03-01T08:33:43;103094.22;;;17.33
31921;BMP280;66485;52.128;4.436;2023-03-01T08:36:09;103090.97;;;17.43
31921;BMP280;66485;52.128;4.436;2023-03-01T08:38:35;103098.56;;;17.53
31921;BMP280;66485;52.128;4.436;2023-03-01T08:41:01;103099.97;;;17.63
31921;BMP280;66485;52.128;4.436;2023-03-01T08:43:27;103087.72;;;17.69
31921;BMP280;66485;52.128;4.436;2023-03-01T08:45:52;103090.56;;;17.76
31921;BMP280;66485;52.128;4.436;2023-03-01T08:48:18;103090.56;;;17.76
31921;BMP280;66485;52.128;4.436;2023-03-01T08:50:43;103089.59;;;17.84
31921;BMP280;66485;52.128;4.436;2023-03-01T08:53:08;103088.06;;;17.87
31921;BMP280;66485;52.128;4.436;2023-03-01T08:55:33;103095.00;;;17.84
31921;BMP280;66485;52.128;4.436;2023-03-01T08:57:59;103092.81;;;17.90
31921;BMP280;66485;52.128;4.436;2023-03-01T09:00:24;103088.75;;;17.99
31921;BMP280;66485;52.128;4.436;2023-03-01T09:02:50;103088.75;;;17.99
31921;BMP280;66485;52.128;4.436;2023-03-01T09:05:15;103100.94;;;18.09
31921;BMP280;66485;52.128;4.436;2023-03-01T09:07:40;103101.50;;;18.18
31921;BMP280;66485;52.128;4.436;2023-03-01T09:10:06;103101.50;;;18.18
31921;BMP280;66485;52.128;4.436;2023-03-01T09:12:31;103099.75;;;18.26
31921;BMP280;66485;52.128;4.436;2023-03-01T09:14:57;103098.94;;;18.25
31921;BMP280;66485;52.128;4.436;2023-03-01T09:17:22;103097.44;;;18.28
31921;BMP280;66485;52.128;4.436;2023-03-01T09:19:47;103102.66;;;18.36
31921;BMP280;66485;52.128;4.436;2023-03-01T09:22:13;103102.66;;;18.36
31921;BMP280;66485;52.128;4.436;2023-03-01T09:24:38;103093.34;;;18.37
31921;BMP280;66485;52.128;4.436;2023-03-01T09:27:05;103087.53;;;18.35
31921;BMP280;66485;52.128;4.436;2023-03-01T09:29:37;103095.09;;;18.45
31921;BMP280;66485;52.128;4.436;2023-03-01T09:32:03;103091.28;;;18.50
31921;BMP280;66485;52.128;4.436;2023-03-01T09:34:28;103089.00;;;18.52
31921;BMP280;66485;52.128;4.436;2023-03-01T09:36:54;103081.91;;;18.47
31921;BMP280;66485;52.128;4.436;2023-03-01T09:39:19;103081.91;;;18.47
31921;BMP280;66485;52.128;4.436;2023-03-01T09:41:59;103082.75;;;18.51
31921;BMP280;66485;52.128;4.436;2023-03-01T09:44:38;103082.16;;;18.62
31921;BMP280;66485;52.128;4.436;2023-03-01T09:47:08;103091.53;;;19.10
31921;BMP280;66485;52.128;4.436;2023-03-01T09:49:36;103094.56;;;20.24
31921;BMP280;66485;52.128;4.436;2023-03-01T09:54:53;103073.53;;;19.54
31921;BMP280;66485;52.128;4.436;2023-03-01T09:57:30;103071.81;;;19.43
31921;BMP280;66485;52.128;4.436;2023-03-01T10:00:03;103071.44;;;19.44
31921;BMP280;66485;52.128;4.436;2023-03-01T10:06:08;103068.91;;;19.58
31921;BMP280;66485;52.128;4.436;2023-03-01T10:11:00;103070.97;;;19.68
31921;BMP280;66485;52.128;4.436;2023-03-01T10:13:32;103068.66;;;19.67
31921;BMP280;66485;52.128;4.436;2023-03-01T10:16:10;103071.47;;;19.78
31921;BMP280;66485;52.128;4.436;2023-03-01T10:18:37;103068.81;;;19.81
31921;BMP280;66485;52.128;4.436;2023-03-01T10:21:15;103061.09;;;19.87
31921;BMP280;66485;52.128;4.436;2023-03-01T10:23:42;103061.09;;;19.87
31921;BMP280;66485;52.128;4.436;2023-03-01T10:26:38;103055.66;;;19.83
31921;BMP280;66485;52.128;4.436;2023-03-01T10:29:10;103047.94;;;19.92
31921;BMP280;66485;52.128;4.436;2023-03-01T10:31:46;103046.50;;;20.02
31921;BMP280;66485;52.128;4.436;2023-03-01T10:34:27;103043.44;;;20.03
31921;BMP280;66485;52.128;4.436;2023-03-01T10:36:56;103038.06;;;20.10
31921;BMP280;66485;52.128;4.436;2023-03-01T10:39:24;103040.78;;;20.10
31921;BMP280;66485;52.128;4.436;2023-03-01T10:42:03;103037.38;;;20.21
31921;BMP280;66485;52.128;4.436;2023-03-01T10:44:38;103033.53;;;20.25
31921;BMP280;66485;52.128;4.436;2023-03-01T10:47:04;103008.69;;;20.30
31921;BMP280;66485;52.128;4.436;2023-03-01T10:49:29;103016.09;;;20.33
31921;BMP280;66485;52.128;4.436;2023-03-01T10:51:55;103016.09;;;20.33
31921;BMP280;66485;52.128;4.436;2023-03-01T10:54:28;103014.16;;;20.34
31921;BMP280;66485;52.128;4.436;2023-03-01T10:56:56;103017.31;;;20.36
31921;BMP280;66485;52.128;4.436;2023-03-01T10:59:33;103010.63;;;20.30
31921;BMP280;66485;52.128;4.436;2023-03-01T11:02:30;103019.94;;;20.29
31921;BMP280;66485;52.128;4.436;2023-03-01T11:07:23;103011.53;;;20.41
31921;BMP280;66485;52.128;4.436;2023-03-01T11:09:48;103013.06;;;20.45
31921;BMP280;66485;52.128;4.436;2023-03-01T11:12:15;103003.41;;;20.48
31921;BMP280;66485;52.128;4.436;2023-03-01T11:14:49;103013.53;;;20.55
31921;BMP280;66485;52.128;4.436;2023-03-01T11:17:21;103005.03;;;20.60
31921;BMP280;66485;52.128;4.436;2023-03-01T11:22:47;103002.31;;;20.60
31921;BMP280;66485;52.128;4.436;2023-03-01T11:25:15;102991.91;;;20.72
31921;BMP280;66485;52.128;4.436;2023-03-01T11:27:44;102988.38;;;20.68
31921;BMP280;66485;52.128;4.436;2023-03-01T11:33:05;102978.28;;;20.72
31921;BMP280;66485;52.128;4.436;2023-03-01T11:35:31;102971.31;;;20.78
31921;BMP280;66485;52.128;4.436;2023-03-01T11:40:31;102966.28;;;20.84
31921;BMP280;66485;52.128;4.436;2023-03-01T11:50:00;102965.63;;;21.08
31921;BMP280;66485;52.128;4.436;2023-03-01T11:57:19;102953.66;;;21.23
31921;BMP280;66485;52.128;4.436;2023-03-01T12:04:01;102938.84;;;21.32
31921;BMP280;66485;52.128;4.436;2023-03-01T12:09:27;102942.38;;;21.39
31921;BMP280;66485;52.128;4.436;2023-03-01T12:12:27;102933.81;;;21.41
31921;BMP280;66485;52.128;4.436;2023-03-01T12:17:56;102924.13;;;21.64
31921;BMP280;66485;52.128;4.436;2023-03-01T12:40:10;102895.66;;;22.08
31921;BMP280;66485;52.128;4.436;2023-03-01T12:43:15;102895.66;;;22.08
31921;BMP280;66485;52.128;4.436;2023-03-01T12:50:52;102903.84;;;22.26
31921;BMP280;66485;52.128;4.436;2023-03-01T12:53:40;102894.84;;;22.36
31921;BMP280;66485;52.128;4.436;2023-03-01T12:56:10;102887.44;;;22.29
31921;BMP280;66485;52.128;4.436;2023-03-01T13:17:48;102869.41;;;22.64
31921;BMP280;66485;52.128;4.436;2023-03-01T13:20:16;102867.03;;;22.66
31921;BMP280;66485;52.128;4.436;2023-03-01T13:22:42;102862.72;;;22.72
31921;BMP280;66485;52.128;4.436;2023-03-01T13:25:17;102872.50;;;22.66
31921;BMP280;66485;52.128;4.436;2023-03-01T13:27:44;102865.47;;;22.68
31921;BMP280;66485;52.128;4.436;2023-03-01T13:30:39;102867.00;;;22.73
31921;BMP280;66485;52.128;4.436;2023-03-01T13:35:57;102861.53;;;22.76
31921;BMP280;66485;52.128;4.436;2023-03-01T13:39:18;102854.88;;;22.77
31921;BMP280;66485;52.128;4.436;2023-03-01T13:41:52;102843.06;;;22.94
31921;BMP280;66485;52.128;4.436;2023-03-01T13:44:39;102843.38;;;23.04
31921;BMP280;66485;52.128;4.436;2023-03-01T13:49:47;102843.03;;;23.02
31921;BMP280;66485;52.128;4.436;2023-03-01T13:52:39;102834.00;;;23.05
31921;BMP280;66485;52.128;4.436;2023-03-01T13:55:16;102826.94;;;23.18
31921;BMP280;66485;52.128;4.436;2023-03-01T13:57:44;102819.00;;;23.27
31921;BMP280;66485;52.128;4.436;2023-03-01T14:00:36;102822.91;;;23.26
31921;BMP280;66485;52.128;4.436;2023-03-01T14:05:34;102808.06;;;23.30
31921;BMP280;66485;52.128;4.436;2023-03-01T14:08:01;102794.31;;;23.38
31921;BMP280;66485;52.128;4.436;2023-03-01T14:10:35;102800.50;;;23.45
31921;BMP280;66485;52.128;4.436;2023-03-01T14:16:03;102789.09;;;23.54
31921;BMP280;66485;52.128;4.436;2023-03-01T14:18:36;102787.09;;;23.58
31921;BMP280;66485;52.128;4.436;2023-03-01T14:21:08;102781.19;;;23.63
31921;BMP280;66485;52.128;4.436;2023-03-01T14:23:33;102771.41;;;23.65
31921;BMP280;66485;52.128;4.436;2023-03-01T14:26:01;102775.31;;;23.64
31921;BMP280;66485;52.128;4.436;2023-03-01T14:28:30;102767.88;;;23.65
31921;BMP280;66485;52.128;4.436;2023-03-01T14:30:59;102771.75;;;23.71
31921;BMP280;66485;52.128;4.436;2023-03-01T14:33:33;102766.13;;;23.44
31921;BMP280;66485;52.128;4.436;2023-03-01T14:41:08;102761.94;;;23.32
31921;BMP280;66485;52.128;4.436;2023-03-01T14:43:35;102754.97;;;23.28
31921;BMP280;66485;52.128;4.436;2023-03-01T14:46:01;102752.59;;;23.26
31921;BMP280;66485;52.128;4.436;2023-03-01T14:48:28;102752.59;;;23.26
31921;BMP280;66485;52.128;4.436;2023-03-01T14:50:55;102736.28;;;23.19
31921;BMP280;66485;52.128;4.436;2023-03-01T14:53:29;102731.97;;;23.18
31921;BMP280;66485;52.128;4.436;2023-03-01T14:55:59;102729.25;;;23.18
31921;BMP280;66485;52.128;4.436;2023-03-01T14:58:27;102729.25;;;23.18
31921;BMP280;66485;52.128;4.436;2023-03-01T15:00:55;102714.84;;;23.14
31921;BMP280;66485;52.128;4.436;2023-03-01T15:03:34;102714.84;;;23.14
31921;BMP280;66485;52.128;4.436;2023-03-01T15:06:01;102714.47;;;23.12
31921;BMP280;66485;52.128;4.436;2023-03-01T15:08:27;102709.38;;;23.14
31921;BMP280;66485;52.128;4.436;2023-03-01T15:13:40;102719.53;;;23.14
31921;BMP280;66485;52.128;4.436;2023-03-01T15:16:21;102725.84;;;23.07
31921;BMP280;66485;52.128;4.436;2023-03-01T15:18:53;102723.53;;;23.02
31921;BMP280;66485;52.128;4.436;2023-03-01T15:21:42;102724.25;;;23.10
31921;BMP280;66485;52.128;4.436;2023-03-01T15:26:55;102722.38;;;23.03
31921;BMP280;66485;52.128;4.436;2023-03-01T15:29:25;102709.91;;;22.99
31921;BMP280;66485;52.128;4.436;2023-03-01T15:32:04;102715.34;;;23.02
31921;BMP280;66485;52.128;4.436;2023-03-01T15:36:57;102706.34;;;23.02
31921;BMP280;66485;52.128;4.436;2023-03-01T15:41:56;102705.22;;;22.99
31921;BMP280;66485;52.128;4.436;2023-03-01T15:46:50;102699.38;;;22.97
31921;BMP280;66485;52.128;4.436;2023-03-01T15:49:41;102700.94;;;22.94
31921;BMP280;66485;52.128;4.436;2023-03-01T15:52:21;102700.94;;;22.94
31921;BMP280;66485;52.128;4.436;2023-03-01T15:54:54;102699.03;;;22.91
31921;BMP280;66485;52.128;4.436;2023-03-01T15:57:19;102696.72;;;22.86
31921;BMP280;66485;52.128;4.436;2023-03-01T15:59:45;102693.59;;;22.88
31921;BMP280;66485;52.128;4.436;2023-03-01T16:02:11;102693.59;;;22.88
31921;BMP280;66485;52.128;4.436;2023-03-01T16:04:38;102682.72;;;22.77
31921;BMP280;66485;52.128;4.436;2023-03-01T16:07:03;102695.25;;;22.75
31921;BMP280;66485;52.128;4.436;2023-03-01T16:09:28;102688.63;;;22.72
31921;BMP280;66485;52.128;4.436;2023-03-01T16:11:54;102682.00;;;22.73